sensor_id;sensor_type;location;lat;lon;timestamp;temperature;humidity
20654;DHT22;21083;50.898;4.902;2023-10-19T00:02:05;17.30;99.90
20654;DHT22;21083;50.898;4.902;2023-10-19T00:04:34;17.30;99.90
20654;DHT22;21083;50.898;4.902;2023-10-19T00:07:02;17.30;99.90
20654;DHT22;21083;50.898;4.902;2023-10-19T00:09:31;17.30;99.90
20654;DHT22;21083;50.898;4.902;2023-10-19T00:12:03;17.30;99.90
20654;DHT22;21083;50.898;4.902;2023-10-19T00:14:31;17.40;99.90
20654;DHT22;21083;50.898;4.902;2023-10-19T00:16:58;17.40;99.90
20654;DHT22;21083;50.898;4.902;2023-10-19T00:19:34;17.40;99.90
20654;DHT22;21083;50.898;4.902;2023-10-19T00:22:05;17.50;99.90
20654;DHT22;21083;50.898;4.902;2023-10-19T00:24:41;17.40;99.90
20654;DHT22;21083;50.898;4.902;2023-10-19T00:27:07;17.40;99.90
20654;DHT22;21083;50.898;4.902;2023-10-19T00:29:42;17.40;99.90
20654;DHT22;21083;50.898;4.902;2023-10-19T00:32:15;17.40;99.90
20654;DHT22;21083;50.898;4.902;2023-10-19T00:34:45;17.50;99.90
20654;DHT22;21083;50.898;4.902;2023-10-19T00:37:18;17.50;99.90
20654;DHT22;21083;50.898;4.902;2023-10-19T00:39:52;17.40;99.90
20654;DHT22;21083;50.898;4.902;2023-10-19T00:42:21;17.40;99.90
20654;DHT22;21083;50.898;4.902;2023-10-19T00:44:55;17.40;99.90
20654;DHT22;21083;50.898;4.902;2023-10-19T00:47:30;17.40;99.90
20654;DHT22;21083;50.898;4.902;2023-10-19T00:50:08;17.40;99.90
20654;DHT22;21083;50.898;4.902;2023-10-19T00:52:40;17.40;99.90
20654;DHT22;21083;50.898;4.902;2023-10-19T00:55:15;17.50;99.90
20654;DHT22;21083;50.898;4.902;2023-10-19T00:57:44;17.60;99.90
20654;DHT22;21083;50.898;4.902;2023-10-19T01:00:15;17.50;99.90
20654;DHT22;21083;50.898;4.902;2023-10-19T01:02:57;17.50;99.90
20654;DHT22;21083;50.898;4.902;2023-10-19T01:05:27;17.60;99.90
20654;DHT22;21083;50.898;4.902;2023-10-19T01:08:01;17.50;99.90
20654;DHT22;21083;50.898;4.902;2023-10-19T01:10:39;17.50;99.90
20654;DHT22;21083;50.898;4.902;2023-10-19T01:13:08;17.60;99.90
20654;DHT22;21083;50.898;4.902;2023-10-19T01:15:37;17.60;99.90
20654;DHT22;21083;50.898;4.902;2023-10-19T01:18:05;17.60;99.90
20654;DHT22;21083;50.898;4.902;2023-10-19T01:20:37;17.60;99.90
20654;DHT22;21083;50.898;4.902;2023-10-19T01:23:17;17.50;99.90
20654;DHT22;21083;50.898;4.902;2023-10-19T01:25:52;17.50;99.90
20654;DHT22;21083;50.898;4.902;2023-10-19T01:28:28;17.50;99.90
20654;DHT22;21083;50.898;4.902;2023-10-19T01:31:08;17.40;99.90
20654;DHT22;21083;50.898;4.902;2023-10-19T01:33:40;17.50;99.90
20654;DHT22;21083;50.898;4.902;2023-10-19T01:36:10;17.50;99.90
20654;DHT22;21083;50.898;4.902;2023-10-19T01:38:39;17.50;99.90
20654;DHT22;21083;50.898;4.902;2023-10-19T01:41:06;17.40;99.90
20654;DHT22;21083;50.898;4.902;2023-10-19T01:43:39;17.40;99.90
20654;DHT22;21083;50.898;4.902;2023-10-19T01:46:06;17.60;99.90
20654;DHT22;21083;50.898;4.902;2023-10-19T01:48:38;17.50;99.90
20654;DHT22;21083;50.898;4.902;2023-10-19T01:51:06;17.50;99.90
20654;DHT22;21083;50.898;4.902;2023-10-19T01:53:38;17.50;99.90
20654;DHT22;21083;50.898;4.902;2023-10-19T01:56:06;17.40;99.90
20654;DHT22;21083;50.898;4.902;2023-10-19T01:58:35;17.50;99.90
20654;DHT22;21083;50.898;4.902;2023-10-19T02:01:02;17.50;99.90
20654;DHT22;21083;50.898;4.902;2023-10-19T02:03:34;17.40;99.90
20654;DHT22;21083;50.898;4.902;2023-10-19T02:06:02;17.30;99.90
20654;DHT22;21083;50.898;4.902;2023-10-19T02:08:38;17.30;99.90
20654;DHT22;21083;50.898;4.902;2023-10-19T02:11:05;17.40;99.90
20654;DHT22;21083;50.898;4.902;2023-10-19T02:13:39;17.50;99.90
20654;DHT22;21083;50.898;4.902;2023-10-19T02:16:06;17.50;99.90
20654;DHT22;21083;50.898;4.902;2023-10-19T02:18:34;17.40;99.90
20654;DHT22;21083;50.898;4.902;2023-10-19T02:21:00;17.30;99.90
20654;DHT22;21083;50.898;4.902;2023-10-19T02:23:32;17.30;99.90
20654;DHT22;21083;50.898;4.902;2023-10-19T02:26:01;17.20;99.90
20654;DHT22;21083;50.898;4.902;2023-10-19T02:28:30;17.20;99.90
20654;DHT22;21083;50.898;4.902;2023-10-19T02:30:58;17.10;99.90
20654;DHT22;21083;50.898;4.902;2023-10-19T02:33:37;17.00;99.90
20654;DHT22;21083;50.898;4.902;2023-10-19T02:36:04;17.10;99.90
20654;DHT22;21083;50.898;4.902;2023-10-19T02:38:39;17.30;99.90
20654;DHT22;21083;50.898;4.902;2023-10-19T02:41:06;17.40;99.90
20654;DHT22;21083;50.898;4.902;2023-10-19T02:43:35;17.30;99.90
20654;DHT22;21083;50.898;4.902;2023-10-19T02:46:01;17.20;99.90
20654;DHT22;21083;50.898;4.902;2023-10-19T02:48:30;17.10;99.90
20654;DHT22;21083;50.898;4.902;2023-10-19T02:50:56;17.30;99.90
20654;DHT22;21083;50.898;4.902;2023-10-19T02:53:32;17.30;99.90
20654;DHT22;21083;50.898;4.902;2023-10-19T02:55:59;17.20;99.90
20654;DHT22;21083;50.898;4.902;2023-10-19T02:58:40;17.20;99.90
20654;DHT22;21083;50.898;4.902;2023-10-19T03:01:13;17.00;99.90
20654;DHT22;21083;50.898;4.902;2023-10-19T03:03:43;17.10;99.90
20654;DHT22;21083;50.898;4.902;2023-10-19T03:06:09;17.10;99.90
20654;DHT22;21083;50.898;4.902;2023-10-19T03:08:37;17.20;99.90
20654;DHT22;21083;50.898;4.902;2023-10-19T03:11:02;17.20;99.90
20654;DHT22;21083;50.898;4.902;2023-10-19T03:13:34;17.10;99.90
20654;DHT22;21083;50.898;4.902;2023-10-19T03:16:03;17.10;99.90
20654;DHT22;21083;50.898;4.902;2023-10-19T03:18:33;17.00;99.90
20654;DHT22;21083;50.898;4.902;2023-10-19T03:21:01;16.80;99.90
20654;DHT22;21083;50.898;4.902;2023-10-19T03:23:27;16.90;99.90
20654;DHT22;21083;50.898;4.902;2023-10-19T03:25:55;16.80;99.90
20654;DHT22;21083;50.898;4.902;2023-10-19T03:28:40;16.80;99.90
20654;DHT22;21083;50.898;4.902;2023-10-19T03:31:10;16.80;99.90
20654;DHT22;21083;50.898;4.902;2023-10-19T03:33:43;16.70;99.90
20654;DHT22;21083;50.898;4.902;2023-10-19T03:36:13;16.70;99.90
20654;DHT22;21083;50.898;4.902;2023-10-19T03:38:40;16.70;99.90
20654;DHT22;21083;50.898;4.902;2023-10-19T03:41:07;16.70;99.90
20654;DHT22;21083;50.898;4.902;2023-10-19T03:43:35;16.70;99.90
20654;DHT22;21083;50.898;4.902;2023-10-19T03:46:06;16.60;99.90
20654;DHT22;21083;50.898;4.902;2023-10-19T03:48:46;16.50;99.90
20654;DHT22;21083;50.898;4.902;2023-10-19T03:51:13;16.50;99.90
20654;DHT22;21083;50.898;4.902;2023-10-19T03:53:40;16.40;99.90
20654;DHT22;21083;50.898;4.902;2023-10-19T03:56:12;16.50;99.90
20654;DHT22;21083;50.898;4.902;2023-10-19T03:58:39;16.60;99.90
20654;DHT22;21083;50.898;4.902;2023-10-19T04:01:08;16.60;99.90
20654;DHT22;21083;50.898;4.902;2023-10-19T04:03:36;16.50;99.90
20654;DHT22;21083;50.898;4.902;2023-10-19T04:06:05;16.50;99.90
20654;DHT22;21083;50.898;4.902;2023-10-19T04:08:33;16.50;99.90
20654;DHT22;21083;50.898;4.902;2023-10-19T04:11:03;16.50;99.90
20654;DHT22;21083;50.898;4.902;2023-10-19T04:13:38;16.60;99.90
20654;DHT22;21083;50.898;4.902;2023-10-19T04:16:05;16.50;99.90
20654;DHT22;21083;50.898;4.902;2023-10-19T04:18:35;16.50;99.90
20654;DHT22;21083;50.898;4.902;2023-10-19T04:21:07;16.50;99.90
20654;DHT22;21083;50.898;4.902;2023-10-19T04:23:34;16.60;99.90
20654;DHT22;21083;50.898;4.902;2023-10-19T04:26:02;16.50;99.90
20654;DHT22;21083;50.898;4.902;2023-10-19T04:28:37;16.60;99.90
20654;DHT22;21083;50.898;4.902;2023-10-19T04:31:15;16.40;99.90
20654;DHT22;21083;50.898;4.902;2023-10-19T04:33:42;16.50;99.90
20654;DHT22;21083;50.898;4.902;2023-10-19T04:36:13;16.50;99.90
20654;DHT22;21083;50.898;4.902;2023-10-19T04:38:41;16.50;99.90
20654;DHT22;21083;50.898;4.902;2023-10-19T04:41:10;16.50;99.90
20654;DHT22;21083;50.898;4.902;2023-10-19T04:43:38;16.50;99.90
20654;DHT22;21083;50.898;4.902;2023-10-19T04:46:07;16.60;99.90
20654;DHT22;21083;50.898;4.902;2023-10-19T04:48:37;16.70;99.90
20654;DHT22;21083;50.898;4.902;2023-10-19T04:51:06;16.70;99.90
20654;DHT22;21083;50.898;4.902;2023-10-19T04:53:36;16.70;99.90
20654;DHT22;21083;50.898;4.902;2023-10-19T04:56:06;16.60;99.90
20654;DHT22;21083;50.898;4.902;2023-10-19T04:58:34;16.70;99.90
20654;DHT22;21083;50.898;4.902;2023-10-19T05:01:02;16.70;99.90
20654;DHT22;21083;50.898;4.902;2023-10-19T05:03:29;16.70;99.90
20654;DHT22;21083;50.898;4.902;2023-10-19T05:05:57;16.70;99.90
20654;DHT22;21083;50.898;4.902;2023-10-19T05:08:24;16.70;99.90
20654;DHT22;21083;50.898;4.902;2023-10-19T05:10:55;16.60;99.90
20654;DHT22;21083;50.898;4.902;2023-10-19T05:13:25;16.70;99.90
20654;DHT22;21083;50.898;4.902;2023-10-19T05:15:52;16.60;99.90
20654;DHT22;21083;50.898;4.902;2023-10-19T05:18:20;16.70;99.90
20654;DHT22;21083;50.898;4.902;2023-10-19T05:20:47;16.70;99.90
20654;DHT22;21083;50.898;4.902;2023-10-19T05:23:15;16.70;99.90
20654;DHT22;21083;50.898;4.902;2023-10-19T05:25:42;16.70;99.90
20654;DHT22;21083;50.898;4.902;2023-10-19T05:28:11;16.60;99.90
20654;DHT22;21083;50.898;4.902;2023-10-19T05:30:38;16.70;99.90
20654;DHT22;21083;50.898;4.902;2023-10-19T05:33:05;16.60;99.90
20654;DHT22;21083;50.898;4.902;2023-10-19T05:35:32;16.70;99.90
20654;DHT22;21083;50.898;4.902;2023-10-19T05:38:06;16.70;99.90
20654;DHT22;21083;50.898;4.902;2023-10-19T05:40:33;16.70;99.90
20654;DHT22;21083;50.898;4.902;2023-10-19T05:43:01;16.70;99.90
20654;DHT22;21083;50.898;4.902;2023-10-19T05:45:30;16.70;99.90
20654;DHT22;21083;50.898;4.902;2023-10-19T05:47:58;16.70;99.90
20654;DHT22;21083;50.898;4.902;2023-10-19T05:50:25;16.70;99.90
20654;DHT22;21083;50.898;4.902;2023-10-19T05:52:54;16.70;99.90
20654;DHT22;21083;50.898;4.902;2023-10-19T05:55:21;16.70;99.90
20654;DHT22;21083;50.898;4.902;2023-10-19T05:57:48;16.70;99.90
20654;DHT22;21083;50.898;4.902;2023-10-19T06:00:15;16.70;99.90
20654;DHT22;21083;50.898;4.902;2023-10-19T06:02:47;16.70;99.90
20654;DHT22;21083;50.898;4.902;2023-10-19T06:05:15;16.80;99.90
20654;DHT22;21083;50.898;4.902;2023-10-19T06:07:42;16.70;99.90
20654;DHT22;21083;50.898;4.902;2023-10-19T06:10:11;16.80;99.90
20654;DHT22;21083;50.898;4.902;2023-10-19T06:12:42;16.80;99.90
20654;DHT22;21083;50.898;4.902;2023-10-19T06:15:10;16.80;99.90
20654;DHT22;21083;50.898;4.902;2023-10-19T06:17:38;16.70;99.90
20654;DHT22;21083;50.898;4.902;2023-10-19T06:20:08;16.70;99.90
20654;DHT22;21083;50.898;4.902;2023-10-19T06:22:45;16.70;99.90
20654;DHT22;21083;50.898;4.902;2023-10-19T06:25:16;16.70;99.90
20654;DHT22;21083;50.898;4.902;2023-10-19T06:27:44;16.60;99.90
20654;DHT22;21083;50.898;4.902;2023-10-19T06:30:11;16.80;99.90
20654;DHT22;21083;50.898;4.902;2023-10-19T06:32:44;16.70;99.90
20654;DHT22;21083;50.898;4.902;2023-10-19T06:35:12;16.70;99.90
20654;DHT22;21083;50.898;4.902;2023-10-19T06:37:39;16.70;99.90
20654;DHT22;21083;50.898;4.902;2023-10-19T06:40:07;16.60;99.90
20654;DHT22;21083;50.898;4.902;2023-10-19T06:42:36;16.70;99.90
20654;DHT22;21083;50.898;4.902;2023-10-19T06:45:04;16.70;99.90
20654;DHT22;21083;50.898;4.902;2023-10-19T06:47:31;16.70;99.90
20654;DHT22;21083;50.898;4.902;2023-10-19T06:50:03;16.60;99.90
20654;DHT22;21083;50.898;4.902;2023-10-19T06:52:34;16.70;99.90
20654;DHT22;21083;50.898;4.902;2023-10-19T06:55:02;16.70;99.90
20654;DHT22;21083;50.898;4.902;2023-10-19T06:57:29;16.60;99.90
20654;DHT22;21083;50.898;4.902;2023-10-19T06:59:56;16.50;99.90
20654;DHT22;21083;50.898;4.902;2023-10-19T07:02:23;16.50;99.90
20654;DHT22;21083;50.898;4.902;2023-10-19T07:04:52;16.60;99.90
20654;DHT22;21083;50.898;4.902;2023-10-19T07:07:19;16.60;99.90
20654;DHT22;21083;50.898;4.902;2023-10-19T07:09:47;16.50;99.90
20654;DHT22;21083;50.898;4.902;2023-10-19T07:12:16;16.50;99.90
20654;DHT22;21083;50.898;4.902;2023-10-19T07:14:43;16.50;99.90
20654;DHT22;21083;50.898;4.902;2023-10-19T07:17:10;16.50;99.90
20654;DHT22;21083;50.898;4.902;2023-10-19T07:19:42;16.50;99.90
20654;DHT22;21083;50.898;4.902;2023-10-19T07:22:09;16.50;99.90
20654;DHT22;21083;50.898;4.902;2023-10-19T07:24:36;16.50;99.90
20654;DHT22;21083;50.898;4.902;2023-10-19T07:27:05;16.50;99.90
20654;DHT22;21083;50.898;4.902;2023-10-19T07:29:33;16.60;99.90
20654;DHT22;21083;50.898;4.902;2023-10-19T07:32:01;16.50;99.90
20654;DHT22;21083;50.898;4.902;2023-10-19T07:34:31;16.50;99.90
20654;DHT22;21083;50.898;4.902;2023-10-19T07:36:58;16.60;99.90
20654;DHT22;21083;50.898;4.902;2023-10-19T07:39:26;16.60;99.90
20654;DHT22;21083;50.898;4.902;2023-10-19T07:41:55;16.60;99.90
20654;DHT22;21083;50.898;4.902;2023-10-19T07:44:23;16.60;99.90
20654;DHT22;21083;50.898;4.902;2023-10-19T07:46:51;16.70;99.90
20654;DHT22;21083;50.898;4.902;2023-10-19T07:49:19;16.80;99.90
20654;DHT22;21083;50.898;4.902;2023-10-19T07:51:47;16.90;99.90
20654;DHT22;21083;50.898;4.902;2023-10-19T07:54:15;17.10;99.90
20654;DHT22;21083;50.898;4.902;2023-10-19T07:56:42;17.10;99.90
20654;DHT22;21083;50.898;4.902;2023-10-19T07:59:09;17.20;99.90
20654;DHT22;21083;50.898;4.902;2023-10-19T08:01:39;17.20;99.90
20654;DHT22;21083;50.898;4.902;2023-10-19T08:04:06;17.40;99.90
20654;DHT22;21083;50.898;4.902;2023-10-19T08:06:33;17.40;99.90
20654;DHT22;21083;50.898;4.902;2023-10-19T08:09:00;17.40;99.90
20654;DHT22;21083;50.898;4.902;2023-10-19T08:11:27;17.50;99.90
20654;DHT22;21083;50.898;4.902;2023-10-19T08:13:54;17.50;99.90
20654;DHT22;21083;50.898;4.902;2023-10-19T08:16:21;17.50;99.90
20654;DHT22;21083;50.898;4.902;2023-10-19T08:18:51;17.60;99.90
20654;DHT22;21083;50.898;4.902;2023-10-19T08:21:18;17.60;99.90
20654;DHT22;21083;50.898;4.902;2023-10-19T08:23:46;17.60;99.90
20654;DHT22;21083;50.898;4.902;2023-10-19T08:26:13;17.60;99.90
20654;DHT22;21083;50.898;4.902;2023-10-19T08:28:41;17.70;99.90
20654;DHT22;21083;50.898;4.902;2023-10-19T08:31:09;17.70;99.90
20654;DHT22;21083;50.898;4.902;2023-10-19T08:33:36;17.70;99.90
20654;DHT22;21083;50.898;4.902;2023-10-19T08:36:07;17.80;99.90
20654;DHT22;21083;50.898;4.902;2023-10-19T08:38:42;17.80;99.90
20654;DHT22;21083;50.898;4.902;2023-10-19T08:41:09;17.80;99.90
20654;DHT22;21083;50.898;4.902;2023-10-19T08:43:36;17.70;99.90
20654;DHT22;21083;50.898;4.902;2023-10-19T08:46:05;17.70;99.90
20654;DHT22;21083;50.898;4.902;2023-10-19T08:48:33;17.70;99.90
20654;DHT22;21083;50.898;4.902;2023-10-19T08:51:05;17.70;99.90
20654;DHT22;21083;50.898;4.902;2023-10-19T08:53:37;17.70;99.90
20654;DHT22;21083;50.898;4.902;2023-10-19T08:56:06;17.80;99.90
20654;DHT22;21083;50.898;4.902;2023-10-19T08:58:34;17.80;99.90
20654;DHT22;21083;50.898;4.902;2023-10-19T09:01:01;17.90;99.90
20654;DHT22;21083;50.898;4.902;2023-10-19T09:03:32;17.90;99.90
20654;DHT22;21083;50.898;4.902;2023-10-19T09:06:01;17.90;99.90
20654;DHT22;21083;50.898;4.902;2023-10-19T09:08:28;17.90;99.90
20654;DHT22;21083;50.898;4.902;2023-10-19T09:11:07;17.90;99.90
20654;DHT22;21083;50.898;4.902;2023-10-19T09:13:44;17.90;99.90
20654;DHT22;21083;50.898;4.902;2023-10-19T09:16:13;18.00;99.90
20654;DHT22;21083;50.898;4.902;2023-10-19T09:18:40;18.00;99.90
20654;DHT22;21083;50.898;4.902;2023-10-19T09:21:08;18.00;99.90
20654;DHT22;21083;50.898;4.902;2023-10-19T09:23:37;18.00;99.90
20654;DHT22;21083;50.898;4.902;2023-10-19T09:26:06;18.00;99.90
20654;DHT22;21083;50.898;4.902;2023-10-19T09:28:37;18.10;99.90
20654;DHT22;21083;50.898;4.902;2023-10-19T09:31:04;18.10;99.90
20654;DHT22;21083;50.898;4.902;2023-10-19T09:33:35;18.10;99.90
20654;DHT22;21083;50.898;4.902;2023-10-19T09:36:03;18.20;99.90
20654;DHT22;21083;50.898;4.902;2023-10-19T09:38:38;18.10;99.90
20654;DHT22;21083;50.898;4.902;2023-10-19T09:41:12;18.10;99.90
20654;DHT22;21083;50.898;4.902;2023-10-19T09:43:42;18.10;99.90
20654;DHT22;21083;50.898;4.902;2023-10-19T09:46:11;18.20;99.90
20654;DHT22;21083;50.898;4.902;2023-10-19T09:48:40;18.20;99.90
20654;DHT22;21083;50.898;4.902;2023-10-19T09:51:08;18.20;99.90
20654;DHT22;21083;50.898;4.902;2023-10-19T09:53:36;18.30;99.90
20654;DHT22;21083;50.898;4.902;2023-10-19T09:56:08;18.30;99.90
20654;DHT22;21083;50.898;4.902;2023-10-19T09:58:44;18.30;99.90
20654;DHT22;21083;50.898;4.902;2023-10-19T10:01:11;18.30;99.90
20654;DHT22;21083;50.898;4.902;2023-10-19T10:03:46;18.30;99.90
20654;DHT22;21083;50.898;4.902;2023-10-19T10:06:14;18.30;99.90
20654;DHT22;21083;50.898;4.902;2023-10-19T10:08:42;18.40;99.90
20654;DHT22;21083;50.898;4.902;2023-10-19T10:11:22;18.40;99.90
20654;DHT22;21083;50.898;4.902;2023-10-19T10:13:50;18.40;99.90
20654;DHT22;21083;50.898;4.902;2023-10-19T10:16:18;18.30;99.90
20654;DHT22;21083;50.898;4.902;2023-10-19T10:18:47;18.30;99.90
20654;DHT22;21083;50.898;4.902;2023-10-19T10:21:17;18.30;99.90
20654;DHT22;21083;50.898;4.902;2023-10-19T10:23:47;18.40;99.90
20654;DHT22;21083;50.898;4.902;2023-10-19T10:26:15;18.40;99.90
20654;DHT22;21083;50.898;4.902;2023-10-19T10:28:48;18.30;99.90
20654;DHT22;21083;50.898;4.902;2023-10-19T10:31:19;18.40;99.90
20654;DHT22;21083;50.898;4.902;2023-10-19T10:33:47;18.40;99.90
20654;DHT22;21083;50.898;4.902;2023-10-19T10:36:16;18.50;99.90
20654;DHT22;21083;50.898;4.902;2023-10-19T10:38:44;18.60;99.90
20654;DHT22;21083;50.898;4.902;2023-10-19T10:41:11;18.70;99.90
20654;DHT22;21083;50.898;4.902;2023-10-19T10:44:03;18.80;99.90
20654;DHT22;21083;50.898;4.902;2023-10-19T10:46:30;18.90;99.90
20654;DHT22;21083;50.898;4.902;2023-10-19T10:48:58;18.90;99.90
20654;DHT22;21083;50.898;4.902;2023-10-19T10:51:26;19.10;99.90
20654;DHT22;21083;50.898;4.902;2023-10-19T10:53:54;19.10;99.90
20654;DHT22;21083;50.898;4.902;2023-10-19T10:56:23;19.30;99.90
20654;DHT22;21083;50.898;4.902;2023-10-19T10:58:50;19.30;99.90
20654;DHT22;21083;50.898;4.902;2023-10-19T11:01:30;19.50;99.90
20654;DHT22;21083;50.898;4.902;2023-10-19T11:04:08;19.60;99.90
20654;DHT22;21083;50.898;4.902;2023-10-19T11:06:49;19.50;99.90
20654;DHT22;21083;50.898;4.902;2023-10-19T11:09:16;19.40;99.90
20654;DHT22;21083;50.898;4.902;2023-10-19T11:11:45;19.30;99.90
20654;DHT22;21083;50.898;4.902;2023-10-19T11:14:12;19.30;99.90
20654;DHT22;21083;50.898;4.902;2023-10-19T11:16:40;19.30;99.90
20654;DHT22;21083;50.898;4.902;2023-10-19T11:19:09;19.20;99.90
20654;DHT22;21083;50.898;4.902;2023-10-19T11:21:36;19.20;99.90
20654;DHT22;21083;50.898;4.902;2023-10-19T11:24:04;19.20;99.90
20654;DHT22;21083;50.898;4.902;2023-10-19T11:26:31;19.20;99.90
20654;DHT22;21083;50.898;4.902;2023-10-19T11:29:06;19.10;99.90
20654;DHT22;21083;50.898;4.902;2023-10-19T11:31:35;19.20;99.90
20654;DHT22;21083;50.898;4.902;2023-10-19T11:34:06;19.10;99.90
20654;DHT22;21083;50.898;4.902;2023-10-19T11:36:34;19.10;99.90
20654;DHT22;21083;50.898;4.902;2023-10-19T11:39:01;19.10;99.90
20654;DHT22;21083;50.898;4.902;2023-10-19T11:41:30;19.00;99.90
20654;DHT22;21083;50.898;4.902;2023-10-19T11:43:57;18.90;99.90
20654;DHT22;21083;50.898;4.902;2023-10-19T11:46:24;18.90;99.90
20654;DHT22;21083;50.898;4.902;2023-10-19T11:48:51;18.80;99.90
20654;DHT22;21083;50.898;4.902;2023-10-19T11:51:19;18.80;99.90
20654;DHT22;21083;50.898;4.902;2023-10-19T11:53:46;18.80;99.90
20654;DHT22;21083;50.898;4.902;2023-10-19T11:56:13;18.70;99.90
20654;DHT22;21083;50.898;4.902;2023-10-19T11:58:42;18.70;99.90
20654;DHT22;21083;50.898;4.902;2023-10-19T12:01:12;18.60;99.90
20654;DHT22;21083;50.898;4.902;2023-10-19T12:03:40;18.60;99.90
20654;DHT22;21083;50.898;4.902;2023-10-19T12:06:07;18.60;99.90
20654;DHT22;21083;50.898;4.902;2023-10-19T12:08:38;18.60;99.90
20654;DHT22;21083;50.898;4.902;2023-10-19T12:11:06;18.60;99.90
20654;DHT22;21083;50.898;4.902;2023-10-19T12:13:41;18.60;99.90
20654;DHT22;21083;50.898;4.902;2023-10-19T12:16:09;18.60;99.90
20654;DHT22;21083;50.898;4.902;2023-10-19T12:18:38;18.60;99.90
20654;DHT22;21083;50.898;4.902;2023-10-19T12:21:05;18.60;99.90
20654;DHT22;21083;50.898;4.902;2023-10-19T12:23:36;18.60;99.90
20654;DHT22;21083;50.898;4.902;2023-10-19T12:26:05;18.60;99.90
20654;DHT22;21083;50.898;4.902;2023-10-19T12:28:36;18.50;99.90
20654;DHT22;21083;50.898;4.902;2023-10-19T12:31:04;18.40;99.90
20654;DHT22;21083;50.898;4.902;2023-10-19T12:33:34;18.40;99.90
20654;DHT22;21083;50.898;4.902;2023-10-19T12:36:01;18.30;99.90
20654;DHT22;21083;50.898;4.902;2023-10-19T12:38:48;18.30;99.90
20654;DHT22;21083;50.898;4.902;2023-10-19T12:41:16;18.30;99.90
20654;DHT22;21083;50.898;4.902;2023-10-19T12:43:44;18.30;99.90
20654;DHT22;21083;50.898;4.902;2023-10-19T12:46:11;18.20;99.90
20654;DHT22;21083;50.898;4.902;2023-10-19T12:48:39;18.10;99.90
20654;DHT22;21083;50.898;4.902;2023-10-19T12:51:06;18.10;99.90
20654;DHT22;21083;50.898;4.902;2023-10-19T12:53:34;18.20;99.90
20654;DHT22;21083;50.898;4.902;2023-10-19T12:56:04;18.20;99.90
20654;DHT22;21083;50.898;4.902;2023-10-19T12:58:31;18.40;99.90
20654;DHT22;21083;50.898;4.902;2023-10-19T13:00:58;18.50;99.90
20654;DHT22;21083;50.898;4.902;2023-10-19T13:03:25;18.60;99.90
20654;DHT22;21083;50.898;4.902;2023-10-19T13:05:56;18.80;99.90
20654;DHT22;21083;50.898;4.902;2023-10-19T13:08:24;18.80;99.90
20654;DHT22;21083;50.898;4.902;2023-10-19T13:10:53;19.00;99.90
20654;DHT22;21083;50.898;4.902;2023-10-19T13:13:22;19.20;99.90
20654;DHT22;21083;50.898;4.902;2023-10-19T13:15:50;19.30;99.90
20654;DHT22;21083;50.898;4.902;2023-10-19T13:18:18;19.30;99.90
20654;DHT22;21083;50.898;4.902;2023-10-19T13:20:47;19.40;99.90
20654;DHT22;21083;50.898;4.902;2023-10-19T13:23:14;19.50;99.90
20654;DHT22;21083;50.898;4.902;2023-10-19T13:25:43;19.90;99.90
20654;DHT22;21083;50.898;4.902;2023-10-19T13:28:16;21.40;99.90
20654;DHT22;21083;50.898;4.902;2023-10-19T13:30:49;22.90;99.90
20654;DHT22;21083;50.898;4.902;2023-10-19T13:33:17;23.90;99.90
20654;DHT22;21083;50.898;4.902;2023-10-19T13:35:45;25.20;99.90
20654;DHT22;21083;50.898;4.902;2023-10-19T13:38:15;26.10;99.90
20654;DHT22;21083;50.898;4.902;2023-10-19T13:40:43;26.80;99.90
20654;DHT22;21083;50.898;4.902;2023-10-19T13:43:10;27.60;99.90
20654;DHT22;21083;50.898;4.902;2023-10-19T13:45:40;28.30;99.90
20654;DHT22;21083;50.898;4.902;2023-10-19T13:48:10;28.90;99.90
20654;DHT22;21083;50.898;4.902;2023-10-19T13:50:42;29.10;99.90
20654;DHT22;21083;50.898;4.902;2023-10-19T13:53:11;28.90;99.90
20654;DHT22;21083;50.898;4.902;2023-10-19T13:55:38;28.90;99.90
20654;DHT22;21083;50.898;4.902;2023-10-19T13:58:05;28.40;99.90
20654;DHT22;21083;50.898;4.902;2023-10-19T14:00:33;27.20;99.90
20654;DHT22;21083;50.898;4.902;2023-10-19T14:03:06;25.80;99.90
20654;DHT22;21083;50.898;4.902;2023-10-19T14:05:40;24.80;99.90
20654;DHT22;21083;50.898;4.902;2023-10-19T14:08:09;24.00;99.90
20654;DHT22;21083;50.898;4.902;2023-10-19T14:10:36;23.50;99.90
20654;DHT22;21083;50.898;4.902;2023-10-19T14:13:07;22.90;99.90
20654;DHT22;21083;50.898;4.902;2023-10-19T14:15:34;23.20;99.90
20654;DHT22;21083;50.898;4.902;2023-10-19T14:18:03;24.30;99.90
20654;DHT22;21083;50.898;4.902;2023-10-19T14:20:31;25.00;99.90
20654;DHT22;21083;50.898;4.902;2023-10-19T14:23:01;25.00;99.90
20654;DHT22;21083;50.898;4.902;2023-10-19T14:25:30;25.30;99.90
20654;DHT22;21083;50.898;4.902;2023-10-19T14:27:57;25.60;99.90
20654;DHT22;21083;50.898;4.902;2023-10-19T14:30:27;26.00;99.90
20654;DHT22;21083;50.898;4.902;2023-10-19T14:32:55;26.30;99.90
20654;DHT22;21083;50.898;4.902;2023-10-19T14:35:23;26.00;99.90
20654;DHT22;21083;50.898;4.902;2023-10-19T14:37:52;25.60;99.90
20654;DHT22;21083;50.898;4.902;2023-10-19T14:40:24;24.90;99.90
20654;DHT22;21083;50.898;4.902;2023-10-19T14:42:52;24.30;99.90
20654;DHT22;21083;50.898;4.902;2023-10-19T14:45:21;23.70;99.90
20654;DHT22;21083;50.898;4.902;2023-10-19T14:47:52;23.20;99.90
20654;DHT22;21083;50.898;4.902;2023-10-19T14:50:20;22.90;99.90
20654;DHT22;21083;50.898;4.902;2023-10-19T14:52:49;22.80;99.90
20654;DHT22;21083;50.898;4.902;2023-10-19T14:55:17;23.10;99.90
20654;DHT22;21083;50.898;4.902;2023-10-19T14:57:47;23.70;99.90
20654;DHT22;21083;50.898;4.902;2023-10-19T15:00:17;24.20;99.90
20654;DHT22;21083;50.898;4.902;2023-10-19T15:02:49;24.00;99.90
20654;DHT22;21083;50.898;4.902;2023-10-19T15:05:16;24.00;99.90
20654;DHT22;21083;50.898;4.902;2023-10-19T15:07:46;24.10;99.90
20654;DHT22;21083;50.898;4.902;2023-10-19T15:10:18;25.10;99.90
20654;DHT22;21083;50.898;4.902;2023-10-19T15:12:47;25.70;99.90
20654;DHT22;21083;50.898;4.902;2023-10-19T15:15:14;26.70;99.90
20654;DHT22;21083;50.898;4.902;2023-10-19T15:17:42;28.00;99.90
20654;DHT22;21083;50.898;4.902;2023-10-19T15:20:11;28.50;99.90
20654;DHT22;21083;50.898;4.902;2023-10-19T15:22:40;27.70;99.90
20654;DHT22;21083;50.898;4.902;2023-10-19T15:25:08;26.20;99.90
20654;DHT22;21083;50.898;4.902;2023-10-19T15:27:36;25.00;99.90
20654;DHT22;21083;50.898;4.902;2023-10-19T15:30:07;24.00;99.90
20654;DHT22;21083;50.898;4.902;2023-10-19T15:32:34;23.40;99.90
20654;DHT22;21083;50.898;4.902;2023-10-19T15:35:01;22.90;99.90
20654;DHT22;21083;50.898;4.902;2023-10-19T15:37:29;22.40;99.90
20654;DHT22;21083;50.898;4.902;2023-10-19T15:39:56;22.20;99.90
20654;DHT22;21083;50.898;4.902;2023-10-19T15:42:23;21.80;99.90
20654;DHT22;21083;50.898;4.902;2023-10-19T15:44:52;21.60;99.90